createdAt,value
2019-03-01T00:00:49.203Z,16.50
2019-03-01T00:03:17.488Z,16.50
2019-03-01T00:06:11.053Z,16.27
2019-03-01T00:09:09.651Z,16.40
2019-03-01T00:11:42.474Z,13.63
2019-03-01T00:14:34.850Z,16.00
2019-03-01T00:17:10.603Z,15.10
2019-03-01T00:19:40.646Z,17.70
2019-03-01T00:22:27.217Z,16.87
2019-03-01T00:25:06.174Z,15.93
2019-03-01T00:27:54.326Z,16.40
2019-03-01T00:30:58.788Z,17.80
2019-03-01T00:33:45.158Z,17.37
2019-03-01T00:36:20.949Z,13.90
2019-03-01T00:38:53.691Z,16.83
2019-03-01T00:41:41.755Z,14.30
2019-03-01T00:44:28.098Z,13.57
2019-03-01T00:46:54.272Z,18.13
2019-03-01T00:49:20.424Z,15.77
2019-03-01T00:51:46.564Z,16.73
2019-03-01T00:54:12.731Z,22.27
2019-03-01T00:56:39.139Z,18.57
2019-03-01T00:59:05.291Z,14.40
2019-03-01T01:01:31.449Z,18.20
2019-03-01T01:03:57.603Z,19.50
2019-03-01T01:06:23.755Z,16.33
2019-03-01T01:08:50.141Z,18.93
2019-03-01T01:11:16.311Z,15.43
2019-03-01T01:13:42.510Z,17.27
2019-03-01T01:16:08.647Z,19.30
2019-03-01T01:18:34.795Z,20.37
2019-03-01T01:21:00.983Z,16.83
2019-03-01T01:23:27.151Z,16.60
2019-03-01T01:25:53.304Z,18.63
2019-03-01T01:28:19.477Z,15.53
2019-03-01T01:30:45.623Z,17.60
2019-03-01T01:33:12.035Z,17.60
2019-03-01T01:35:38.173Z,15.90
2019-03-01T01:38:04.351Z,18.57
2019-03-01T01:40:30.487Z,19.27
2019-03-01T01:42:56.650Z,17.33
2019-03-01T01:45:23.026Z,16.83
2019-03-01T01:47:49.413Z,16.17
2019-03-01T01:50:15.540Z,15.63
2019-03-01T01:52:41.695Z,14.33
2019-03-01T01:55:07.951Z,16.27
2019-03-01T01:57:34.109Z,14.57
2019-03-01T02:00:00.344Z,18.47
2019-03-01T02:02:26.512Z,16.27
2019-03-01T02:04:52.883Z,15.00
2019-03-01T02:07:19.039Z,14.37
2019-03-01T02:09:45.188Z,20.60
2019-03-01T02:12:12.371Z,17.67
2019-03-01T02:14:38.510Z,16.00
2019-03-01T02:17:04.917Z,17.33
2019-03-01T02:19:31.065Z,15.03
2019-03-01T02:21:57.215Z,17.33
2019-03-01T02:24:23.364Z,16.97
2019-03-01T02:26:49.520Z,16.97
2019-03-01T02:29:15.657Z,15.00
2019-03-01T02:31:45.528Z,19.00
2019-03-01T02:34:11.675Z,15.57
2019-03-01T02:36:37.816Z,15.90
2019-03-01T02:39:04.270Z,20.37
2019-03-01T02:41:31.317Z,15.67
2019-03-01T02:43:57.477Z,15.03
2019-03-01T02:46:23.616Z,16.07
2019-03-01T02:48:49.759Z,16.93
2019-03-01T02:51:15.914Z,15.70
2019-03-01T02:53:42.063Z,14.53
2019-03-01T02:56:08.212Z,16.00
2019-03-01T02:58:34.379Z,14.70
2019-03-01T03:01:00.516Z,14.73
2019-03-01T03:03:26.715Z,14.23
2019-03-01T03:05:54.830Z,13.80
2019-03-01T03:08:20.981Z,16.07
2019-03-01T03:10:47.361Z,14.20
2019-03-01T03:13:13.524Z,17.73
2019-03-01T03:15:41.602Z,16.00
2019-03-01T03:18:07.756Z,14.80
2019-03-01T03:20:35.526Z,15.70
2019-03-01T03:23:01.896Z,14.80
2019-03-01T03:25:28.047Z,14.57
2019-03-01T03:27:54.224Z,15.73
2019-03-01T03:30:20.911Z,15.60
2019-03-01T03:32:47.133Z,16.63
2019-03-01T03:35:13.367Z,15.77
2019-03-01T03:37:39.519Z,18.20
2019-03-01T03:40:09.705Z,15.30
2019-03-01T03:42:35.844Z,17.93
2019-03-01T03:45:04.319Z,14.17
2019-03-01T03:47:30.560Z,16.17
2019-03-01T03:49:56.711Z,15.67
2019-03-01T03:52:22.853Z,12.80
2019-03-01T03:54:49.001Z,15.20
2019-03-01T03:57:15.162Z,16.17
2019-03-01T03:59:41.306Z,17.27
2019-03-01T04:02:07.549Z,16.40
2019-03-01T04:04:33.713Z,14.43
2019-03-01T04:07:00.211Z,16.27
2019-03-01T04:09:26.344Z,18.23
2019-03-01T04:11:52.517Z,14.70
2019-03-01T04:14:18.695Z,16.53
2019-03-01T04:16:44.861Z,16.27
2019-03-01T04:19:10.996Z,18.57
2019-03-01T04:21:37.150Z,15.93
2019-03-01T04:24:03.304Z,14.23
2019-03-01T04:26:30.462Z,14.47
2019-03-01T04:28:56.862Z,15.87
2019-03-01T04:31:23.018Z,16.43
2019-03-01T04:33:49.171Z,16.73
2019-03-01T04:36:15.327Z,17.57
2019-03-01T04:38:41.686Z,21.20
2019-03-01T04:41:07.822Z,19.87
2019-03-01T04:43:33.955Z,16.50
2019-03-01T04:46:00.103Z,16.90
2019-03-01T04:48:26.475Z,15.97
2019-03-01T04:50:52.623Z,16.80
2019-03-01T04:53:18.754Z,17.93
2019-03-01T04:55:44.882Z,16.83
2019-03-01T04:58:11.027Z,19.00
2019-03-01T05:00:37.158Z,15.37
2019-03-01T05:03:03.562Z,17.40
2019-03-01T05:05:29.697Z,15.90
2019-03-01T05:07:55.832Z,17.50
2019-03-01T05:10:21.966Z,20.00
2019-03-01T05:12:48.124Z,16.83
2019-03-01T05:15:22.075Z,18.13
2019-03-01T05:17:48.261Z,20.07
2019-03-01T05:20:14.396Z,21.07
2019-03-01T05:22:41.547Z,20.27
2019-03-01T05:25:09.274Z,17.37
2019-03-01T05:27:35.515Z,22.83
2019-03-01T05:30:03.573Z,22.73
2019-03-01T05:32:29.915Z,23.63
2019-03-01T05:34:57.047Z,21.07
2019-03-01T05:37:23.196Z,23.23
2019-03-01T05:39:49.338Z,21.70
2019-03-01T05:42:15.708Z,23.00
2019-03-01T05:44:41.843Z,23.07
2019-03-01T05:47:07.991Z,23.30
2019-03-01T05:49:34.144Z,25.97
2019-03-01T05:52:00.296Z,25.53
2019-03-01T05:54:26.423Z,24.13
2019-03-01T05:56:52.570Z,25.27
2019-03-01T05:59:20.411Z,23.67
2019-03-01T06:01:52.948Z,26.07
2019-03-01T06:04:22.879Z,25.10
2019-03-01T06:07:21.648Z,29.27
2019-03-01T06:10:00.467Z,26.27
2019-03-01T06:12:51.140Z,31.47
2019-03-01T06:15:26.719Z,30.77
2019-03-01T06:18:22.239Z,34.67
2019-03-01T06:21:12.674Z,37.60
2019-03-01T06:23:54.649Z,43.00
2019-03-01T06:26:27.279Z,48.47
2019-03-01T06:29:08.627Z,49.00
2019-03-01T06:31:59.736Z,61.08
2019-03-01T06:34:48.098Z,61.17
2019-03-01T06:37:26.792Z,70.67
2019-03-01T06:40:07.774Z,76.47
2019-03-01T06:42:57.313Z,85.93
2019-03-01T06:45:30.459Z,85.87
2019-03-01T06:47:56.623Z,85.73
2019-03-01T06:50:24.668Z,104.77
2019-03-01T06:52:50.919Z,101.53
2019-03-01T06:55:32.744Z,114.07
2019-03-01T06:57:58.910Z,116.87
2019-03-01T07:00:25.680Z,109.27
2019-03-01T07:02:53.730Z,121.13
2019-03-01T07:05:19.866Z,119.33
2019-03-01T07:07:46.040Z,122.77
2019-03-01T07:10:12.194Z,119.53
2019-03-01T07:12:38.350Z,127.00
2019-03-01T07:15:07.166Z,123.30
2019-03-01T07:17:33.824Z,120.23
2019-03-01T07:20:00.970Z,125.47
2019-03-01T07:22:27.104Z,124.73
2019-03-01T07:24:53.246Z,131.87
2019-03-01T07:27:19.400Z,124.33
2019-03-01T07:29:45.557Z,131.30
2019-03-01T07:32:11.683Z,139.00
2019-03-01T07:34:37.844Z,136.23
2019-03-01T07:37:03.985Z,143.60
2019-03-01T07:39:30.160Z,142.87
2019-03-01T07:41:56.296Z,137.73
2019-03-01T07:44:22.448Z,128.20
2019-03-01T07:46:52.961Z,141.10
2019-03-01T07:49:16.667Z,141.30
2019-03-01T07:51:42.804Z,144.93
2019-03-01T07:54:08.949Z,148.93
2019-03-01T07:56:36.962Z,140.27
2019-03-01T07:59:03.132Z,133.50
2019-03-01T08:01:29.943Z,133.13
2019-03-01T08:03:56.117Z,124.10
2019-03-01T08:06:22.251Z,129.47
2019-03-01T08:08:48.403Z,130.43
2019-03-01T08:11:14.540Z,130.33
2019-03-01T08:13:40.783Z,125.10
2019-03-01T08:16:06.929Z,123.77
2019-03-01T08:18:33.061Z,114.47
2019-03-01T08:20:59.207Z,114.93
2019-03-01T08:23:25.360Z,116.53
2019-03-01T08:25:51.500Z,121.93
2019-03-01T08:28:18.526Z,114.37
2019-03-01T08:30:46.808Z,109.30
2019-03-01T08:33:13.102Z,106.73
2019-03-01T08:35:39.339Z,102.37
2019-03-01T08:38:05.489Z,108.83
2019-03-01T08:40:31.716Z,116.00
2019-03-01T08:42:58.850Z,107.07
2019-03-01T08:45:25.228Z,108.40
2019-03-01T08:47:51.465Z,110.63
2019-03-01T08:50:17.867Z,105.07
2019-03-01T08:52:44.778Z,102.40
2019-03-01T08:55:16.208Z,109.43
2019-03-01T08:57:44.566Z,123.30
2019-03-01T09:00:23.225Z,105.50
2019-03-01T09:02:51.428Z,117.47
2019-03-01T09:05:17.804Z,107.00
2019-03-01T09:07:44.041Z,103.07
2019-03-01T09:10:15.050Z,100.97
2019-03-01T09:12:41.196Z,104.03
2019-03-01T09:15:10.139Z,123.73
2019-03-01T09:17:36.396Z,110.67
2019-03-01T09:20:05.647Z,116.90
2019-03-01T09:22:33.670Z,119.10
2019-03-01T09:25:02.529Z,119.43
2019-03-01T09:27:30.393Z,113.57
2019-03-01T09:29:56.163Z,118.90
2019-03-01T09:32:24.009Z,120.67
2019-03-01T09:34:52.106Z,117.67
2019-03-01T09:37:18.240Z,124.07
2019-03-01T09:39:44.621Z,125.43
2019-03-01T09:42:12.453Z,116.23
2019-03-01T09:44:39.321Z,115.63
2019-03-01T09:47:05.801Z,129.73
2019-03-01T09:49:32.023Z,117.00
2019-03-01T09:51:58.185Z,120.80
2019-03-01T09:54:24.328Z,122.33
2019-03-01T09:56:50.469Z,112.10
2019-03-01T09:59:16.603Z,118.70
2019-03-01T10:01:43.999Z,123.37
2019-03-01T10:04:10.153Z,117.17
2019-03-01T10:06:38.306Z,112.97
2019-03-01T10:09:08.137Z,112.37
2019-03-01T10:11:34.494Z,114.50
2019-03-01T10:14:00.636Z,125.13
2019-03-01T10:16:26.772Z,120.43
2019-03-01T10:18:52.915Z,121.10
2019-03-01T10:21:19.076Z,117.63
2019-03-01T10:23:45.307Z,109.13
2019-03-01T10:26:11.470Z,105.37
2019-03-01T10:28:37.635Z,111.90
2019-03-01T10:31:03.766Z,114.40
2019-03-01T10:33:29.911Z,105.90
2019-03-01T10:35:56.062Z,103.43
2019-03-01T10:38:22.219Z,102.00
2019-03-01T10:40:48.348Z,103.57
2019-03-01T10:43:14.753Z,99.07
2019-03-01T10:45:40.888Z,106.47
2019-03-01T10:48:07.047Z,87.73
2019-03-01T10:50:33.244Z,93.90
2019-03-01T10:52:59.493Z,94.63
2019-03-01T10:55:28.690Z,94.87
2019-03-01T10:57:54.855Z,94.73
2019-03-01T11:00:26.592Z,95.57
2019-03-01T11:02:53.727Z,89.90
2019-03-01T11:05:20.283Z,91.00
2019-03-01T11:07:47.413Z,87.70
2019-03-01T11:10:18.562Z,93.47
2019-03-01T11:12:44.706Z,97.93
2019-03-01T11:15:11.643Z,99.73
2019-03-01T11:17:37.803Z,97.83
2019-03-01T11:20:07.367Z,95.10
2019-03-01T11:22:33.519Z,103.63
2019-03-01T11:24:59.663Z,98.97
2019-03-01T11:27:26.217Z,88.67
2019-03-01T11:29:52.368Z,95.70
2019-03-01T11:32:18.500Z,93.60
2019-03-01T11:34:44.644Z,84.53
2019-03-01T11:37:10.897Z,74.43
2019-03-01T11:39:37.060Z,70.60
2019-03-01T11:42:03.218Z,45.50
2019-03-01T11:44:29.359Z,37.03
2019-03-01T11:46:55.609Z,36.93
2019-03-01T11:49:22.572Z,36.37
2019-03-01T11:51:48.737Z,34.30
2019-03-01T11:54:14.889Z,36.10
2019-03-01T11:56:42.263Z,34.30
2019-03-01T11:59:08.661Z,35.17
2019-03-01T12:01:34.818Z,32.57
2019-03-01T12:04:00.960Z,38.23
2019-03-01T12:06:27.444Z,39.07
2019-03-01T12:08:53.591Z,42.03
2019-03-01T12:11:19.771Z,40.63
2019-03-01T12:13:45.928Z,33.90
2019-03-01T12:16:12.332Z,44.83
2019-03-01T12:18:38.470Z,42.03
2019-03-01T12:21:04.637Z,44.97
2019-03-01T12:23:30.775Z,42.10
2019-03-01T12:25:56.937Z,42.10
2019-03-01T12:28:23.080Z,44.27
2019-03-01T12:30:49.223Z,48.70
2019-03-01T12:33:15.369Z,48.77
2019-03-01T12:35:41.764Z,43.83
2019-03-01T12:38:07.915Z,40.63
2019-03-01T12:40:34.073Z,39.40
2019-03-01T12:43:00.207Z,34.60
2019-03-01T12:45:26.367Z,38.47
2019-03-01T12:47:52.510Z,34.13
2019-03-01T12:50:18.670Z,38.10
2019-03-01T12:52:45.030Z,31.00
2019-03-01T12:55:14.411Z,27.77
2019-03-01T12:57:40.790Z,23.83
2019-03-01T13:00:12.876Z,25.03
2019-03-01T13:02:39.335Z,27.63
2019-03-01T13:05:08.280Z,24.17
2019-03-01T13:07:34.427Z,28.17
2019-03-01T13:10:03.310Z,25.53
2019-03-01T13:12:29.727Z,22.87
2019-03-01T13:14:55.880Z,27.70
2019-03-01T13:17:22.018Z,27.17
2019-03-01T13:19:48.157Z,30.20
2019-03-01T13:22:14.314Z,30.60
2019-03-01T13:24:40.696Z,29.50
2019-03-01T13:27:06.925Z,25.57
2019-03-01T13:29:33.323Z,28.83
2019-03-01T13:31:59.774Z,23.00
2019-03-01T13:34:26.754Z,25.77
2019-03-01T13:36:54.098Z,21.73
2019-03-01T13:39:20.793Z,24.33
2019-03-01T13:41:48.196Z,21.60
2019-03-01T13:44:14.727Z,20.80
2019-03-01T13:46:40.879Z,23.33
2019-03-01T13:49:08.263Z,23.47
2019-03-01T13:51:34.428Z,19.53
2019-03-01T13:54:00.568Z,26.60
2019-03-01T13:56:27.019Z,23.07
2019-03-01T13:58:53.279Z,25.80
2019-03-01T14:01:19.414Z,25.67
2019-03-01T14:03:45.617Z,26.90
2019-03-01T14:06:11.760Z,23.10
2019-03-01T14:08:37.939Z,24.47
2019-03-01T14:11:04.079Z,23.87
2019-03-01T14:13:30.467Z,26.17
2019-03-01T14:15:56.636Z,24.00
2019-03-01T14:18:23.039Z,21.97
2019-03-01T14:20:49.408Z,24.23
2019-03-01T14:23:15.843Z,22.60
2019-03-01T14:25:42.355Z,26.03
2019-03-01T14:28:08.543Z,22.40
2019-03-01T14:30:35.798Z,30.10
2019-03-01T14:33:02.212Z,23.17
2019-03-01T14:35:28.369Z,25.60
2019-03-01T14:37:55.541Z,26.30
2019-03-01T14:40:23.621Z,23.27
2019-03-01T14:42:50.008Z,32.20
2019-03-01T14:45:30.966Z,23.90
2019-03-01T14:47:57.260Z,20.70
2019-03-01T14:50:24.553Z,23.97
2019-03-01T14:52:56.668Z,24.23
2019-03-01T14:55:23.261Z,26.90
2019-03-01T14:57:54.099Z,25.87
2019-03-01T15:00:24.137Z,24.90
2019-03-01T15:03:03.183Z,26.60
2019-03-01T15:05:29.604Z,24.27
2019-03-01T15:07:55.866Z,23.87
2019-03-01T15:10:22.599Z,25.80
2019-03-01T15:12:49.162Z,26.40
2019-03-01T15:15:15.665Z,25.37
2019-03-01T15:17:43.939Z,27.67
2019-03-01T15:20:17.208Z,25.60
2019-03-01T15:22:42.096Z,30.27
2019-03-01T15:25:11.979Z,28.73
2019-03-01T15:27:39.729Z,25.37
2019-03-01T15:30:10.922Z,27.07
2019-03-01T15:32:38.172Z,27.37
2019-03-01T15:35:05.396Z,31.07
2019-03-01T15:37:35.149Z,26.67
2019-03-01T15:39:59.855Z,31.10
2019-03-01T15:42:26.000Z,26.40
2019-03-01T15:44:52.371Z,27.23
2019-03-01T15:47:26.668Z,28.80
2019-03-01T15:49:53.183Z,25.67
2019-03-01T15:52:19.345Z,24.20
2019-03-01T15:54:45.571Z,23.67
2019-03-01T15:57:11.723Z,22.13
2019-03-01T15:59:38.150Z,20.47
2019-03-01T16:02:04.397Z,20.93
2019-03-01T16:04:33.623Z,19.93
2019-03-01T16:06:58.647Z,21.93
2019-03-01T16:09:25.335Z,19.20
2019-03-01T16:11:53.158Z,19.33
2019-03-01T16:14:21.064Z,23.40
2019-03-01T16:16:50.185Z,17.17
2019-03-01T16:19:16.379Z,17.07
2019-03-01T16:21:43.120Z,17.80
2019-03-01T16:24:09.982Z,19.57
2019-03-01T16:26:37.314Z,18.43
2019-03-01T16:29:03.885Z,14.97
2019-03-01T16:31:32.074Z,17.07
2019-03-01T16:34:01.002Z,17.50
2019-03-01T16:36:30.270Z,16.67
2019-03-01T16:38:56.525Z,12.93
2019-03-01T16:41:22.776Z,16.33
2019-03-01T16:43:48.916Z,16.57
2019-03-01T16:46:15.082Z,13.77
2019-03-01T16:48:41.222Z,11.97
2019-03-01T16:51:07.356Z,9.53
2019-03-01T16:53:36.689Z,12.73
2019-03-01T16:56:02.610Z,14.20
2019-03-01T16:58:29.601Z,12.83
2019-03-01T17:00:55.765Z,13.30
2019-03-01T17:03:21.908Z,9.40
2019-03-01T17:05:48.256Z,16.67
2019-03-01T17:08:14.383Z,13.47
2019-03-01T17:10:40.542Z,13.37
2019-03-01T17:13:06.720Z,8.83
2019-03-01T17:15:32.867Z,9.97
2019-03-01T17:17:59.008Z,13.50
2019-03-01T17:20:25.152Z,10.20
2019-03-01T17:22:51.309Z,9.33
2019-03-01T17:25:19.379Z,10.75
2019-03-01T17:27:45.878Z,12.53
2019-03-01T17:30:22.327Z,8.23
2019-03-01T17:32:48.454Z,10.23
2019-03-01T17:35:14.604Z,10.17
2019-03-01T17:37:40.945Z,10.37
2019-03-01T17:40:09.195Z,10.50
2019-03-01T17:42:35.338Z,10.87
2019-03-01T17:45:01.572Z,13.07
2019-03-01T17:47:27.935Z,11.67
2019-03-01T17:49:54.075Z,10.67
2019-03-01T17:52:20.216Z,8.80
2019-03-01T17:54:46.356Z,9.97
2019-03-01T17:57:12.503Z,14.20
2019-03-01T17:59:38.893Z,12.47
2019-03-01T18:02:05.376Z,9.10
2019-03-01T18:04:33.667Z,10.77
2019-03-01T18:06:59.563Z,10.27
2019-03-01T18:09:25.704Z,9.33
2019-03-01T18:11:51.848Z,10.53
2019-03-01T18:14:17.993Z,10.13
2019-03-01T18:16:44.132Z,12.47
2019-03-01T18:19:10.265Z,12.30
2019-03-01T18:21:36.401Z,16.23
2019-03-01T18:24:02.645Z,11.13
2019-03-01T18:26:28.797Z,11.47
2019-03-01T18:28:54.960Z,11.53
2019-03-01T18:31:21.090Z,11.20
2019-03-01T18:33:47.241Z,10.30
2019-03-01T18:36:13.359Z,7.77
2019-03-01T18:38:39.511Z,7.97
2019-03-01T18:41:05.646Z,10.10
2019-03-01T18:43:31.800Z,10.77
2019-03-01T18:45:58.167Z,11.93
2019-03-01T18:48:24.327Z,10.83
2019-03-01T18:50:50.456Z,12.43
2019-03-01T18:53:16.598Z,13.90
2019-03-01T18:55:42.754Z,12.23
2019-03-01T18:58:10.521Z,9.97
2019-03-01T19:00:44.959Z,13.60
2019-03-01T19:03:11.111Z,13.90
2019-03-01T19:05:40.065Z,16.90
2019-03-01T19:08:06.259Z,10.97
2019-03-01T19:10:32.505Z,12.57
2019-03-01T19:12:58.646Z,12.20
2019-03-01T19:15:24.789Z,12.53
2019-03-01T19:17:50.954Z,15.33
2019-03-01T19:20:19.612Z,12.53
2019-03-01T19:22:46.094Z,15.07
2019-03-01T19:25:13.842Z,13.30
2019-03-01T19:27:40.156Z,15.27
2019-03-01T19:30:10.527Z,13.97
2019-03-01T19:32:37.455Z,15.23
2019-03-01T19:35:05.208Z,13.20
2019-03-01T19:37:31.642Z,13.23
2019-03-01T19:39:57.790Z,16.37
2019-03-01T19:42:23.935Z,12.13
2019-03-01T19:44:50.083Z,14.70
2019-03-01T19:47:16.232Z,13.43
2019-03-01T19:49:45.171Z,17.20
2019-03-01T19:52:12.152Z,18.47
2019-03-01T19:54:38.472Z,16.70
2019-03-01T19:57:04.609Z,23.87
2019-03-01T19:59:30.771Z,20.40
2019-03-01T20:01:56.902Z,24.00
2019-03-01T20:04:23.060Z,17.97
2019-03-01T20:06:49.589Z,16.27
2019-03-01T20:09:15.754Z,14.37
2019-03-01T20:11:41.913Z,14.60
2019-03-01T20:14:08.047Z,16.37
2019-03-01T20:16:34.303Z,16.03
2019-03-01T20:19:00.437Z,18.73
2019-03-01T20:21:27.587Z,14.43
2019-03-01T20:23:53.723Z,16.20
2019-03-01T20:26:19.883Z,15.00
2019-03-01T20:28:47.700Z,15.30
2019-03-01T20:31:14.078Z,17.87
2019-03-01T20:33:40.207Z,17.97
2019-03-01T20:36:06.606Z,14.70
2019-03-01T20:38:32.740Z,14.00
2019-03-01T20:40:59.766Z,16.47
2019-03-01T20:43:26.941Z,15.37
2019-03-01T20:45:53.107Z,15.60
2019-03-01T20:48:19.236Z,13.50
2019-03-01T20:50:47.623Z,13.67
2019-03-01T20:53:14.221Z,12.20
2019-03-01T20:55:41.487Z,15.27
2019-03-01T20:58:07.633Z,14.00
2019-03-01T21:00:33.921Z,16.60
2019-03-01T21:03:00.047Z,15.23
2019-03-01T21:05:28.882Z,18.57
2019-03-01T21:07:54.903Z,15.03
2019-03-01T21:10:28.353Z,11.60
2019-03-01T21:12:54.501Z,11.03
2019-03-01T21:15:21.483Z,9.10
2019-03-01T21:17:48.058Z,11.57
2019-03-01T21:20:15.869Z,11.50
2019-03-01T21:22:44.002Z,13.33
2019-03-01T21:25:12.951Z,13.17
2019-03-01T21:27:39.092Z,10.53
2019-03-01T21:30:14.940Z,9.67
2019-03-01T21:32:41.140Z,9.47
2019-03-01T21:35:10.516Z,9.63
2019-03-01T21:37:38.290Z,9.63
2019-03-01T21:40:12.155Z,11.10
2019-03-01T21:42:38.295Z,9.73
2019-03-01T21:45:07.632Z,11.13
2019-03-01T21:47:33.779Z,14.13
2019-03-01T21:50:03.506Z,12.83
2019-03-01T21:52:29.562Z,10.73
2019-03-01T21:54:56.222Z,10.60
2019-03-01T21:57:22.379Z,10.97
2019-03-01T21:59:49.715Z,9.63
2019-03-01T22:02:17.044Z,9.50
2019-03-01T22:04:43.803Z,9.63
2019-03-01T22:07:09.974Z,8.77
2019-03-01T22:09:36.125Z,8.37
2019-03-01T22:12:02.261Z,10.63
2019-03-01T22:14:28.410Z,8.90
2019-03-01T22:16:54.555Z,9.63
2019-03-01T22:19:20.714Z,9.63
2019-03-01T22:21:46.867Z,8.43
2019-03-01T22:24:13.014Z,8.87
2019-03-01T22:26:39.171Z,7.57
2019-03-01T22:29:05.435Z,10.87
2019-03-01T22:31:32.601Z,10.83
2019-03-01T22:33:59.965Z,9.53
2019-03-01T22:36:26.104Z,9.17
2019-03-01T22:38:52.535Z,9.33
2019-03-01T22:41:18.689Z,9.67
2019-03-01T22:43:44.845Z,8.40
2019-03-01T22:46:11.199Z,12.07
2019-03-01T22:48:46.569Z,9.83
2019-03-01T22:51:05.613Z,12.03
2019-03-01T22:53:31.784Z,11.10
2019-03-01T22:55:58.004Z,9.33
2019-03-01T22:58:24.157Z,12.20
2019-03-01T23:01:01.208Z,15.67
2019-03-01T23:03:27.648Z,14.57
2019-03-01T23:05:54.102Z,12.17
2019-03-01T23:08:20.254Z,13.93
2019-03-01T23:10:46.399Z,11.87
2019-03-01T23:13:12.565Z,11.27
2019-03-01T23:15:39.441Z,13.40
2019-03-01T23:18:06.612Z,12.57
2019-03-01T23:20:32.918Z,14.27
2019-03-01T23:22:59.067Z,12.60
2019-03-01T23:25:25.251Z,13.73
2019-03-01T23:27:51.440Z,12.90
2019-03-01T23:30:17.709Z,14.87
2019-03-01T23:32:44.083Z,13.13
2019-03-01T23:35:10.483Z,13.50
2019-03-01T23:37:38.924Z,18.70
2019-03-01T23:40:05.276Z,14.47
2019-03-01T23:42:31.433Z,17.97
2019-03-01T23:44:57.583Z,19.07
2019-03-01T23:47:23.760Z,15.70
2019-03-01T23:49:49.924Z,15.53
2019-03-01T23:52:16.070Z,14.87
2019-03-01T23:54:44.241Z,16.77
2019-03-01T23:57:10.259Z,15.17
2019-03-01T23:59:36.627Z,19.60
